createdAt,value
2017-07-04T00:01:18.970Z,3.30
2017-07-04T00:03:46.556Z,3.40
2017-07-04T00:06:14.104Z,3.87
2017-07-04T00:08:41.654Z,3.30
2017-07-04T00:11:09.181Z,3.20
2017-07-04T00:13:36.717Z,3.40
2017-07-04T00:16:04.245Z,3.67
2017-07-04T00:18:31.794Z,3.70
2017-07-04T00:20:59.348Z,3.70
2017-07-04T00:23:26.908Z,3.83
2017-07-04T00:25:54.435Z,3.70
2017-07-04T00:28:21.957Z,3.93
2017-07-04T00:30:49.492Z,3.37
2017-07-04T00:33:17.013Z,3.50
2017-07-04T00:35:44.571Z,3.60
2017-07-04T00:38:12.089Z,3.77
2017-07-04T00:40:39.630Z,3.60
2017-07-04T00:43:07.155Z,3.27
2017-07-04T00:45:34.690Z,3.70
2017-07-04T00:48:02.262Z,3.47
2017-07-04T00:50:29.828Z,3.37
2017-07-04T00:52:57.388Z,3.70
2017-07-04T00:55:24.957Z,3.83
2017-07-04T00:57:52.503Z,3.53
2017-07-04T01:00:20.020Z,3.60
2017-07-04T01:02:47.582Z,3.40
2017-07-04T01:05:15.142Z,3.50
2017-07-04T01:07:42.688Z,3.67
2017-07-04T01:10:10.221Z,3.60
2017-07-04T01:12:37.753Z,3.43
2017-07-04T01:15:05.277Z,3.30
2017-07-04T01:17:32.819Z,3.53
2017-07-04T01:20:00.376Z,3.37
2017-07-04T01:22:27.920Z,3.50
2017-07-04T01:24:55.440Z,3.40
2017-07-04T01:27:22.963Z,3.50
2017-07-04T01:29:50.509Z,3.87
2017-07-04T01:32:18.021Z,3.20
2017-07-04T01:34:45.586Z,3.20
2017-07-04T01:37:13.106Z,2.80
2017-07-04T01:39:40.641Z,3.50
2017-07-04T01:42:08.181Z,3.60
2017-07-04T01:44:35.731Z,3.27
2017-07-04T01:47:03.258Z,3.27
2017-07-04T01:49:30.820Z,3.33
2017-07-04T01:51:58.332Z,3.43
2017-07-04T01:54:25.846Z,3.40
2017-07-04T01:56:53.422Z,3.23
2017-07-04T01:59:21.125Z,2.80
2017-07-04T02:01:48.664Z,3.53
2017-07-04T02:04:16.178Z,3.17
2017-07-04T02:06:43.740Z,3.30
2017-07-04T02:09:11.293Z,3.20
2017-07-04T02:11:38.849Z,3.00
2017-07-04T02:14:06.378Z,3.60
2017-07-04T02:16:33.892Z,3.20
2017-07-04T02:19:01.453Z,2.87
2017-07-04T02:21:28.987Z,3.30
2017-07-04T02:23:56.733Z,3.40
2017-07-04T02:26:24.265Z,2.90
2017-07-04T02:28:51.805Z,2.73
2017-07-04T02:31:19.351Z,3.13
2017-07-04T02:33:46.866Z,3.00
2017-07-04T02:36:14.402Z,3.03
2017-07-04T02:38:41.926Z,3.03
2017-07-04T02:41:09.468Z,2.70
2017-07-04T02:43:36.989Z,2.50
2017-07-04T02:46:04.542Z,2.80
2017-07-04T02:48:32.581Z,3.00
2017-07-04T02:51:00.149Z,3.07
2017-07-04T02:53:27.684Z,3.23
2017-07-04T02:55:55.237Z,3.10
2017-07-04T02:58:22.750Z,3.00
2017-07-04T03:00:50.317Z,2.77
2017-07-04T03:03:17.838Z,3.27
2017-07-04T03:05:45.389Z,3.33
2017-07-04T03:08:12.960Z,2.73
2017-07-04T03:10:40.500Z,2.90
2017-07-04T03:13:08.063Z,2.90
2017-07-04T03:15:35.584Z,2.70
2017-07-04T03:18:03.124Z,2.60
2017-07-04T03:20:30.660Z,2.70
2017-07-04T03:22:58.198Z,2.57
2017-07-04T03:25:25.724Z,2.73
2017-07-04T03:27:53.275Z,2.67
2017-07-04T03:30:20.796Z,3.53
2017-07-04T03:32:48.402Z,2.50
2017-07-04T03:35:15.930Z,2.60
2017-07-04T03:37:43.463Z,2.73
2017-07-04T03:40:10.989Z,2.73
2017-07-04T03:42:38.510Z,2.60
2017-07-04T03:45:06.044Z,2.70
2017-07-04T03:47:33.578Z,2.73
2017-07-04T03:50:01.141Z,3.40
2017-07-04T03:52:28.682Z,2.60
2017-07-04T03:54:56.264Z,3.03
2017-07-04T03:57:23.792Z,2.40
2017-07-04T03:59:51.328Z,2.70
2017-07-04T04:02:18.842Z,2.67
2017-07-04T04:04:46.422Z,2.77
2017-07-04T04:07:13.948Z,2.53
2017-07-04T04:09:41.484Z,2.50
2017-07-04T04:12:09.023Z,2.70
2017-07-04T04:14:36.563Z,2.57
2017-07-04T04:17:04.101Z,2.07
2017-07-04T04:19:31.624Z,2.40
2017-07-04T04:21:59.172Z,2.87
2017-07-04T04:24:28.381Z,2.63
2017-07-04T04:26:55.977Z,2.20
2017-07-04T04:29:23.540Z,2.50
2017-07-04T04:31:51.076Z,2.87
2017-07-04T04:34:18.598Z,2.30
2017-07-04T04:36:46.140Z,1.90
2017-07-04T04:39:13.654Z,2.63
2017-07-04T04:41:41.196Z,2.23
2017-07-04T04:44:08.729Z,2.33
2017-07-04T04:46:36.285Z,2.43
2017-07-04T04:49:03.847Z,2.17
2017-07-04T04:51:31.373Z,2.20
2017-07-04T04:53:58.919Z,2.60
2017-07-04T04:56:26.471Z,2.10
2017-07-04T04:58:54.012Z,2.23
2017-07-04T05:01:21.531Z,1.93
2017-07-04T05:03:49.077Z,2.07
2017-07-04T05:06:16.654Z,2.23
2017-07-04T05:08:44.198Z,2.23
2017-07-04T05:11:11.720Z,1.70
2017-07-04T05:13:39.275Z,2.30
2017-07-04T05:16:06.836Z,1.83
2017-07-04T05:18:34.386Z,1.80
2017-07-04T05:21:01.927Z,2.17
2017-07-04T05:23:29.449Z,2.30
2017-07-04T05:25:56.991Z,1.90
2017-07-04T05:28:24.745Z,2.10
2017-07-04T05:30:52.305Z,2.00
2017-07-04T05:33:19.827Z,2.17
2017-07-04T05:35:47.373Z,2.20
2017-07-04T05:38:14.905Z,1.97
2017-07-04T05:40:42.453Z,1.87
2017-07-04T05:43:09.998Z,2.03
2017-07-04T05:45:37.504Z,2.00
2017-07-04T05:48:05.078Z,1.97
2017-07-04T05:50:33.417Z,2.20
2017-07-04T05:53:00.974Z,1.70
2017-07-04T05:55:28.501Z,1.70
2017-07-04T05:57:56.052Z,2.00
2017-07-04T06:00:23.588Z,2.00
2017-07-04T06:02:51.125Z,1.77
2017-07-04T06:05:18.653Z,1.80
2017-07-04T06:07:46.221Z,1.87
2017-07-04T06:10:13.737Z,1.80
2017-07-04T06:12:41.285Z,1.73
2017-07-04T06:15:08.800Z,1.60
2017-07-04T06:17:36.309Z,1.97
2017-07-04T06:20:03.850Z,1.80
2017-07-04T06:22:31.401Z,1.83
2017-07-04T06:24:58.950Z,1.80
2017-07-04T06:27:26.476Z,1.80
2017-07-04T06:29:54.010Z,1.80
2017-07-04T06:32:21.525Z,1.70
2017-07-04T06:34:49.071Z,1.60
2017-07-04T06:37:16.616Z,1.53
2017-07-04T06:39:44.149Z,1.70
2017-07-04T06:42:11.667Z,1.70
2017-07-04T06:44:39.189Z,1.80
2017-07-04T06:47:06.728Z,1.87
2017-07-04T06:49:34.282Z,1.70
2017-07-04T06:52:01.824Z,2.00
2017-07-04T06:54:29.358Z,1.50
2017-07-04T06:56:56.897Z,1.90
2017-07-04T06:59:24.457Z,1.60
2017-07-04T07:01:51.998Z,1.50
2017-07-04T07:04:19.520Z,1.83
2017-07-04T07:06:47.078Z,1.80
2017-07-04T07:09:14.625Z,1.57
2017-07-04T07:11:42.169Z,1.70
2017-07-04T07:14:09.711Z,1.77
2017-07-04T07:16:37.260Z,2.10
2017-07-04T07:19:04.796Z,1.73
2017-07-04T07:21:32.348Z,1.73
2017-07-04T07:23:59.905Z,1.70
2017-07-04T07:26:27.421Z,1.93
2017-07-04T07:28:54.956Z,2.67
2017-07-04T07:31:22.488Z,3.23
2017-07-04T07:33:50.042Z,3.50
2017-07-04T07:36:17.563Z,3.30
2017-07-04T07:38:45.101Z,3.30
2017-07-04T07:41:12.637Z,3.07
2017-07-04T07:43:40.177Z,3.20
2017-07-04T07:46:07.713Z,3.40
2017-07-04T07:48:35.268Z,3.77
2017-07-04T07:51:02.824Z,3.43
2017-07-04T07:53:30.378Z,3.23
2017-07-04T07:55:57.916Z,3.17
2017-07-04T07:58:25.433Z,2.77
2017-07-04T08:00:52.978Z,4.40
2017-07-04T08:03:20.535Z,5.77
2017-07-04T08:05:48.085Z,5.10
2017-07-04T08:08:15.609Z,6.83
2017-07-04T08:10:43.145Z,5.97
2017-07-04T08:13:10.665Z,5.53
2017-07-04T08:15:38.239Z,4.50
2017-07-04T08:18:05.783Z,4.53
2017-07-04T08:20:33.318Z,4.83
2017-07-04T08:23:00.857Z,3.83
2017-07-04T08:25:28.395Z,3.83
2017-07-04T08:27:55.934Z,3.87
2017-07-04T08:30:23.460Z,3.90
2017-07-04T08:32:51.002Z,3.87
2017-07-04T08:35:18.532Z,3.60
2017-07-04T08:37:46.287Z,3.07
2017-07-04T08:40:13.804Z,2.60
2017-07-04T08:42:41.373Z,3.07
2017-07-04T08:45:08.909Z,3.13
2017-07-04T08:47:36.433Z,2.73
2017-07-04T08:50:03.986Z,2.77
2017-07-04T08:52:31.528Z,2.13
2017-07-04T08:54:59.082Z,2.50
2017-07-04T08:57:26.944Z,2.10
2017-07-04T08:59:54.501Z,2.33
2017-07-04T09:02:22.038Z,2.73
2017-07-04T09:04:49.582Z,2.13
2017-07-04T09:07:17.113Z,2.20
2017-07-04T09:09:44.681Z,2.10
2017-07-04T09:12:12.246Z,2.67
2017-07-04T09:14:39.833Z,2.40
2017-07-04T09:17:07.365Z,2.03
2017-07-04T09:19:34.895Z,2.10
2017-07-04T09:22:02.445Z,1.70
2017-07-04T09:24:29.991Z,2.00
2017-07-04T09:26:57.546Z,2.13
2017-07-04T09:29:25.098Z,1.80
2017-07-04T09:31:52.633Z,1.83
2017-07-04T09:34:20.165Z,2.10
2017-07-04T09:36:47.725Z,2.20
2017-07-04T09:39:15.318Z,1.63
2017-07-04T09:41:42.872Z,1.43
2017-07-04T09:44:10.402Z,1.53
2017-07-04T09:46:37.925Z,1.77
2017-07-04T09:49:05.523Z,1.37
2017-07-04T09:51:33.040Z,1.83
2017-07-04T09:54:00.571Z,1.60
2017-07-04T09:56:28.084Z,1.63
2017-07-04T09:58:55.705Z,1.30
2017-07-04T10:01:23.244Z,2.17
2017-07-04T10:03:50.783Z,1.10
2017-07-04T10:06:18.301Z,1.40
2017-07-04T10:08:45.847Z,1.40
2017-07-04T10:11:13.373Z,1.40
2017-07-04T10:13:40.960Z,1.20
2017-07-04T10:16:08.498Z,1.37
2017-07-04T10:18:36.049Z,1.20
2017-07-04T10:21:03.593Z,1.30
2017-07-04T10:23:31.146Z,1.40
2017-07-04T10:25:58.716Z,0.97
2017-07-04T10:28:26.309Z,1.10
2017-07-04T10:30:53.889Z,1.10
2017-07-04T10:33:21.412Z,1.00
2017-07-04T10:35:48.946Z,1.10
2017-07-04T10:38:16.509Z,1.10
2017-07-04T10:40:44.070Z,1.10
2017-07-04T10:43:11.634Z,1.30
2017-07-04T10:45:39.194Z,1.07
2017-07-04T10:48:06.724Z,0.90
2017-07-04T10:50:34.312Z,1.10
2017-07-04T10:53:01.881Z,1.10
2017-07-04T10:55:29.432Z,1.10
2017-07-04T10:57:56.965Z,1.20
2017-07-04T11:00:24.500Z,1.10
2017-07-04T11:02:52.064Z,1.00
2017-07-04T11:05:19.577Z,0.87
2017-07-04T11:07:47.152Z,1.10
2017-07-04T11:10:14.694Z,1.10
2017-07-04T11:12:42.239Z,1.10
2017-07-04T11:15:09.760Z,1.00
2017-07-04T11:17:37.308Z,1.00
2017-07-04T11:20:04.839Z,0.90
2017-07-04T11:22:32.376Z,0.90
2017-07-04T11:24:59.921Z,0.80
2017-07-04T11:27:27.457Z,0.90
2017-07-04T11:29:55.006Z,0.80
2017-07-04T11:32:22.561Z,0.90
2017-07-04T11:34:50.106Z,0.80
2017-07-04T11:37:17.675Z,0.97
2017-07-04T11:39:45.247Z,1.17
2017-07-04T11:42:12.765Z,0.80
2017-07-04T11:44:40.301Z,0.83
2017-07-04T11:47:07.815Z,0.80
2017-07-04T11:49:35.356Z,0.60
2017-07-04T11:52:02.916Z,0.90
2017-07-04T11:54:30.434Z,1.00
2017-07-04T11:56:57.974Z,1.10
2017-07-04T11:59:25.494Z,0.73
2017-07-04T12:01:53.033Z,0.90
2017-07-04T12:04:20.616Z,1.00
2017-07-04T12:06:48.171Z,0.97
2017-07-04T12:09:15.696Z,0.80
2017-07-04T12:11:43.231Z,0.80
2017-07-04T12:14:10.750Z,0.90
2017-07-04T12:16:38.295Z,1.10
2017-07-04T12:19:05.816Z,0.80
2017-07-04T12:21:33.349Z,0.90
2017-07-04T12:24:00.889Z,0.70
2017-07-04T12:26:28.615Z,0.80
2017-07-04T12:28:56.177Z,0.80
2017-07-04T12:31:23.706Z,0.73
2017-07-04T12:33:51.245Z,0.90
2017-07-04T12:36:18.768Z,1.00
2017-07-04T12:38:46.300Z,0.80
2017-07-04T12:41:13.832Z,0.70
2017-07-04T12:43:41.369Z,0.80
2017-07-04T12:46:08.945Z,0.80
2017-07-04T12:48:36.510Z,0.70
2017-07-04T12:51:04.031Z,0.77
2017-07-04T12:53:31.565Z,0.70
2017-07-04T12:55:59.109Z,0.93
2017-07-04T12:58:26.665Z,0.80
2017-07-04T13:00:54.228Z,0.63
2017-07-04T13:03:21.749Z,0.80
2017-07-04T13:05:49.390Z,0.87
2017-07-04T13:08:16.918Z,0.70
2017-07-04T13:10:44.454Z,0.70
2017-07-04T13:13:11.988Z,0.90
2017-07-04T13:15:39.531Z,0.60
2017-07-04T13:18:07.067Z,0.90
2017-07-04T13:20:34.613Z,0.77
2017-07-04T13:23:02.171Z,0.60
2017-07-04T13:25:29.711Z,0.70
2017-07-04T13:27:57.263Z,0.60
2017-07-04T13:30:24.789Z,0.80
2017-07-04T13:32:52.321Z,0.70
2017-07-04T13:35:19.865Z,0.77
2017-07-04T13:37:47.413Z,0.80
2017-07-04T13:40:14.976Z,0.90
2017-07-04T13:42:42.513Z,0.70
2017-07-04T13:45:10.043Z,0.70
2017-07-04T13:47:37.580Z,0.70
2017-07-04T13:50:05.120Z,0.70
2017-07-04T13:52:32.670Z,0.70
2017-07-04T13:55:00.211Z,0.70
2017-07-04T13:57:27.764Z,0.60
2017-07-04T13:59:55.311Z,0.50
2017-07-04T14:02:22.861Z,0.70
2017-07-04T14:04:50.413Z,0.70
2017-07-04T14:07:17.931Z,0.60
2017-07-04T14:09:45.460Z,0.67
2017-07-04T14:12:13.010Z,1.00
2017-07-04T14:14:40.522Z,0.70
2017-07-04T14:17:08.076Z,0.97
2017-07-04T14:19:35.593Z,0.77
2017-07-04T14:22:03.178Z,0.80
2017-07-04T14:24:30.753Z,0.87
2017-07-04T14:26:58.288Z,0.70
2017-07-04T14:29:25.805Z,0.70
2017-07-04T14:31:53.326Z,0.67
2017-07-04T14:34:20.888Z,0.70
2017-07-04T14:36:48.410Z,0.60
2017-07-04T14:39:15.986Z,0.60
2017-07-04T14:41:43.505Z,0.70
2017-07-04T14:44:11.044Z,0.80
2017-07-04T14:46:38.554Z,0.73
2017-07-04T14:49:06.111Z,0.70
2017-07-04T14:51:33.672Z,0.90
2017-07-04T14:54:01.215Z,1.03
2017-07-04T14:56:28.755Z,0.70
2017-07-04T14:58:56.265Z,0.90
2017-07-04T15:01:23.823Z,0.70
2017-07-04T15:03:51.348Z,0.80
2017-07-04T15:06:18.889Z,0.80
2017-07-04T15:08:46.441Z,0.60
2017-07-04T15:11:14.000Z,0.60
2017-07-04T15:13:41.521Z,0.80
2017-07-04T15:16:09.065Z,0.70
2017-07-04T15:18:36.627Z,0.80
2017-07-04T15:21:04.182Z,0.70
2017-07-04T15:23:31.713Z,0.67
2017-07-04T15:25:59.256Z,0.70
2017-07-04T15:28:26.775Z,0.60
2017-07-04T15:30:54.303Z,0.60
2017-07-04T15:33:21.842Z,0.73
2017-07-04T15:35:49.385Z,0.80
2017-07-04T15:38:16.927Z,0.70
2017-07-04T15:40:44.465Z,0.70
2017-07-04T15:43:12.024Z,0.77
2017-07-04T15:45:39.576Z,0.80
2017-07-04T15:48:07.125Z,0.70
2017-07-04T15:50:34.648Z,0.80
2017-07-04T15:53:02.178Z,0.80
2017-07-04T15:55:29.707Z,0.70
2017-07-04T15:57:57.286Z,0.63
2017-07-04T16:00:24.820Z,0.70
2017-07-04T16:02:52.334Z,0.70
2017-07-04T16:05:19.877Z,0.80
2017-07-04T16:07:47.397Z,0.70
2017-07-04T16:10:14.941Z,0.70
2017-07-04T16:12:42.457Z,0.70
2017-07-04T16:15:09.994Z,0.87
2017-07-04T16:17:37.533Z,0.70
2017-07-04T16:20:05.073Z,0.80
2017-07-04T16:22:32.592Z,0.90
2017-07-04T16:25:00.130Z,1.00
2017-07-04T16:27:27.647Z,1.60
2017-07-04T16:29:55.255Z,1.13
2017-07-04T16:32:22.777Z,0.90
2017-07-04T16:34:50.319Z,0.80
2017-07-04T16:37:17.854Z,1.30
2017-07-04T16:39:45.356Z,2.70
2017-07-04T16:42:12.896Z,1.07
2017-07-04T16:44:40.411Z,1.20
2017-07-04T16:47:07.945Z,1.10
2017-07-04T16:49:36.404Z,0.93
2017-07-04T16:52:03.972Z,0.90
2017-07-04T16:54:31.540Z,1.00
2017-07-04T16:56:59.084Z,1.10
2017-07-04T16:59:26.599Z,0.87
2017-07-04T17:01:54.133Z,1.00
2017-07-04T17:04:21.644Z,0.90
2017-07-04T17:06:49.158Z,0.90
2017-07-04T17:09:16.695Z,1.10
2017-07-04T17:11:44.250Z,1.10
2017-07-04T17:14:11.815Z,0.90
2017-07-04T17:16:39.348Z,0.70
2017-07-04T17:19:06.899Z,0.83
2017-07-04T17:21:34.426Z,0.80
2017-07-04T17:24:01.967Z,1.50
2017-07-04T17:26:29.505Z,1.20
2017-07-04T17:28:57.021Z,0.90
2017-07-04T17:31:24.553Z,0.93
2017-07-04T17:33:52.088Z,2.83
2017-07-04T17:36:19.622Z,1.70
2017-07-04T17:38:47.189Z,3.30
2017-07-04T17:41:14.748Z,1.50
2017-07-04T17:43:42.269Z,1.67
2017-07-04T17:46:09.806Z,1.30
2017-07-04T17:48:37.343Z,1.10
2017-07-04T17:51:04.865Z,1.10
2017-07-04T17:53:32.393Z,5.27
2017-07-04T17:55:59.913Z,2.80
2017-07-04T17:58:27.446Z,1.80
2017-07-04T18:00:54.960Z,1.00
2017-07-04T18:03:22.498Z,1.10
2017-07-04T18:05:50.013Z,1.00
2017-07-04T18:08:17.601Z,1.10
2017-07-04T18:10:45.118Z,0.93
2017-07-04T18:13:12.652Z,0.80
2017-07-04T18:15:40.198Z,1.00
2017-07-04T18:18:07.742Z,0.87
2017-07-04T18:20:35.289Z,1.07
2017-07-04T18:23:02.832Z,0.90
2017-07-04T18:25:30.357Z,1.13
2017-07-04T18:27:57.884Z,1.10
2017-07-04T18:30:25.425Z,1.10
2017-07-04T18:32:52.951Z,1.47
2017-07-04T18:35:20.487Z,1.03
2017-07-04T18:37:48.029Z,1.10
2017-07-04T18:40:15.616Z,1.50
2017-07-04T18:42:43.160Z,1.20
2017-07-04T18:45:10.697Z,1.17
2017-07-04T18:47:38.247Z,1.33
2017-07-04T18:50:05.805Z,1.60
2017-07-04T18:52:33.353Z,1.60
2017-07-04T18:55:00.881Z,1.67
2017-07-04T18:57:28.477Z,1.73
2017-07-04T18:59:56.002Z,1.63
2017-07-04T19:02:23.540Z,2.00
2017-07-04T19:04:51.109Z,1.63
2017-07-04T19:07:18.654Z,1.70
2017-07-04T19:09:46.173Z,1.60
2017-07-04T19:12:13.745Z,1.60
2017-07-04T19:14:41.285Z,1.53
2017-07-04T19:17:08.862Z,1.73
2017-07-04T19:19:36.385Z,1.23
2017-07-04T19:22:03.923Z,1.30
2017-07-04T19:24:31.497Z,1.33
2017-07-04T19:26:59.030Z,1.50
2017-07-04T19:29:26.564Z,1.43
2017-07-04T19:31:54.078Z,1.93
2017-07-04T19:34:21.628Z,1.60
2017-07-04T19:36:49.150Z,1.33
2017-07-04T19:39:16.685Z,1.87
2017-07-04T19:41:44.212Z,1.10
2017-07-04T19:44:11.748Z,1.50
2017-07-04T19:46:39.271Z,1.43
2017-07-04T19:49:06.820Z,1.50
2017-07-04T19:51:34.368Z,1.40
2017-07-04T19:54:01.883Z,1.97
2017-07-04T19:56:29.416Z,1.37
2017-07-04T19:58:56.948Z,1.40
2017-07-04T20:01:24.490Z,1.40
2017-07-04T20:03:52.013Z,1.47
2017-07-04T20:06:19.550Z,1.40
2017-07-04T20:08:47.061Z,1.60
2017-07-04T20:11:14.597Z,1.53
2017-07-04T20:13:42.146Z,1.33
2017-07-04T20:16:09.685Z,1.20
2017-07-04T20:18:37.250Z,1.50
2017-07-04T20:21:04.775Z,1.60
2017-07-04T20:23:32.314Z,1.50
2017-07-04T20:25:59.831Z,1.60
2017-07-04T20:28:27.372Z,1.60
2017-07-04T20:30:54.886Z,1.73
2017-07-04T20:33:22.429Z,1.70
2017-07-04T20:35:49.974Z,1.57
2017-07-04T20:38:17.525Z,1.40
2017-07-04T20:40:45.073Z,1.40
2017-07-04T20:43:12.622Z,1.27
2017-07-04T20:45:40.193Z,1.77
2017-07-04T20:48:07.742Z,1.70
2017-07-04T20:50:35.306Z,1.50
2017-07-04T20:53:02.858Z,1.70
2017-07-04T20:55:30.397Z,1.60
2017-07-04T20:57:57.926Z,1.87
2017-07-04T21:00:25.501Z,1.60
2017-07-04T21:02:53.017Z,1.57
2017-07-04T21:05:20.585Z,1.53
2017-07-04T21:07:48.129Z,1.43
2017-07-04T21:10:15.659Z,1.53
2017-07-04T21:12:43.200Z,1.60
2017-07-04T21:15:10.741Z,1.40
2017-07-04T21:17:38.279Z,1.67
2017-07-04T21:20:05.800Z,1.53
2017-07-04T21:22:33.680Z,1.50
2017-07-04T21:25:01.226Z,1.70
2017-07-04T21:27:28.804Z,1.20
2017-07-04T21:29:56.324Z,1.30
2017-07-04T21:32:23.842Z,1.63
2017-07-04T21:34:51.394Z,1.30
2017-07-04T21:37:18.923Z,1.20
2017-07-04T21:39:46.460Z,1.30
2017-07-04T21:42:13.968Z,1.10
2017-07-04T21:44:41.507Z,1.20
2017-07-04T21:47:09.024Z,1.77
2017-07-04T21:49:36.569Z,1.30
2017-07-04T21:52:04.133Z,1.57
2017-07-04T21:54:31.682Z,1.50
2017-07-04T21:56:59.213Z,1.20
2017-07-04T21:59:26.726Z,1.50
2017-07-04T22:01:54.265Z,1.43
2017-07-04T22:04:21.784Z,1.70
2017-07-04T22:06:49.322Z,1.30
2017-07-04T22:09:16.841Z,1.97
2017-07-04T22:11:44.379Z,1.70
2017-07-04T22:14:11.910Z,1.37
2017-07-04T22:16:39.713Z,1.30
2017-07-04T22:19:07.244Z,1.30
2017-07-04T22:21:34.780Z,1.20
2017-07-04T22:24:02.330Z,1.70
2017-07-04T22:26:29.910Z,1.37
2017-07-04T22:28:57.433Z,1.73
2017-07-04T22:31:24.949Z,1.57
2017-07-04T22:33:52.485Z,1.50
2017-07-04T22:36:20.027Z,1.40
2017-07-04T22:38:47.560Z,1.50
2017-07-04T22:41:15.081Z,1.27
2017-07-04T22:43:42.612Z,1.20
2017-07-04T22:46:10.893Z,1.30
2017-07-04T22:48:39.189Z,1.20
2017-07-04T22:51:06.701Z,1.63
2017-07-04T22:53:34.242Z,1.47
2017-07-04T22:56:01.759Z,1.17
2017-07-04T22:58:29.313Z,1.40
2017-07-04T23:00:56.867Z,1.63
2017-07-04T23:03:25.145Z,1.30
2017-07-04T23:05:52.673Z,1.30
2017-07-04T23:08:20.188Z,1.20
2017-07-04T23:10:47.729Z,1.47
2017-07-04T23:13:15.257Z,1.20
2017-07-04T23:15:42.818Z,1.40
2017-07-04T23:18:10.333Z,1.30
2017-07-04T23:20:37.876Z,1.50
2017-07-04T23:23:05.394Z,1.40
2017-07-04T23:25:32.935Z,1.37
2017-07-04T23:28:00.452Z,1.57
2017-07-04T23:30:28.001Z,1.47
2017-07-04T23:32:55.522Z,1.77
2017-07-04T23:35:23.065Z,1.40
2017-07-04T23:37:50.632Z,1.50
2017-07-04T23:40:18.153Z,1.30
2017-07-04T23:42:45.696Z,1.73
2017-07-04T23:45:13.206Z,1.60
2017-07-04T23:47:40.745Z,1.30
2017-07-04T23:50:08.274Z,1.40
2017-07-04T23:52:35.845Z,1.50
2017-07-04T23:55:03.371Z,1.20
2017-07-04T23:57:30.917Z,1.20
2017-07-04T23:59:58.441Z,1.33
